Scroll down
FLIGHT INFORMATION
American Airlines

AAL2488

At Arrival Gate

KCLT
 KORD
DATE: 2020-07-17
GATE:  -
GATE DEPARTURE: 22:46
TAKEOFF: 23:00
DATE: 2020-07-18
GATE:  -
LANDING: 00:49
GATE ARRIVAL: 01:02
FLIGHT DATA
Crew: 
Speed: 
481 kts
Altitude: 
34,039 ft
Stage Length: 
520.8 nm
Block Time: 
2.3 hrs
Flight Time: 
1.8 hrs
Fuel Used: 
13,395 lb
Cleared Route: KCLT LACHN YNGUN BOBZY BRAYN REWET HALLS BAZOO BNA FTZ GROOV CASHN VINCA MAROC TRICH TRTLL HIHRY RINNO JORJO MONKZ TONIE HAZIL RW28C
TRACK DATA
50,000 ft 1,000 kts
AIRCRAFT INFO AND CUMULATIVE STATS
Aircraft Type: 
B738BW
Registration: 
SELCAL: 
CPBJ
MSN/LN: 
33323 / 4655
Operator: 
Total Flights: 
19
Total Block Time: 
35.3 hrs
Total Flight Time: 
29.8 hrs
Total Fuel Time: 
205,019 lb
DATALINK LOG | Newest first | Current as of: 2021-01-27 13:40:20
LABEL SEQUENCE CONTENT Dn/Up
QD033501:02 10.9▼ Dn
QC502400:49▼ Dn
2U2341KORD 172351Z 21012G18KT 10SM FEW200 BKN250 30/19 A3006 RMK AO2 SLP174 T03000189 10322 20294 55002▲ Up
2S2400KORD▼ Dn
GA0744ADVANCED GATE ASSIGNMENTS NOT YET AVAILABLE AT THIS AIRPORT▲ Up
GR0744KORD 00:54 MAAS 00 YP/UM 01/02 WCHR/S/C 03/04/05 HI-VAL YES DIPL/VIP NO▼ Dn
5Z074418 JUL 20 00:06:03z / FLT DECK GOOD / ACF POS GOOD / GRND SERVICES GOOD / MAINT GOOD▼ Dn
5Z064318 JUL 20 00:05:30z / FLT DECK GOOD / ACF POS GOOD / GRND SERVICES GOOD / MAINT GOOD▼ Dn
GA0643ADVANCED GATE ASSIGNMENTS NOT YET AVAILABLE AT THIS AIRPORT▲ Up
GR0643KORD 00:54 MAAS 00 YP/UM 01/02 WCHR/S/C 03/04/05 HI-VAL YES DIPL/VIP NO▼ Dn
2U0537KORD 172251Z 20008KT 10SM FEW200 BKN250 31/19 A3005 RMK AO2 SLP171 T03110189▲ Up
2S0542KORD▼ Dn
QB014023:00▼ Dn
QA472622:46 24.3▼ Dn
5U3457KORD 180223Z 18005KT 10SM SCT250 31/18 A3006▲ Up
2U3452KCLT 172152Z 22007KT 10SM FEW040TCU FEW060 SCT250 34/20 A3010 RMK AO2 LTG DSNT NW-NE SLP181 CB DSNT NW-N-NE AND SE TCU NW-N T034▲ Up
5S3515KORD▼ Dn
2S3514KCLT▼ Dn
A33415CLEARED TO KORD VIA BOBZY4 BNA FTZ TRTLL5. SQUAWK .▲ Up
Q03313[LINK ACK]▲ Up
Q03313[LINK TEST]▼ Dn


AIRCRAFT HISTORY
FLIGHT DATE FLIGHT NO. ORIGIN DESTINATION CLEARED ROUTE BLOCK TIME FLIGHT TIME FUEL USED PILOT
2020-10-19AAL1476KSNA KPHX KSNA STREL TANGL SHIRR DANAH PIGGN WIILD FLWRZ BLCKD CSTWY CNERY BLH SCOLE SPINK SNRRA SWOON HYDRR GEELA AGGLA CHAVO LEMOE ZERLO RW25L1.2 hrs0.9 hrs6,421 lbMichael Collier
2020-10-17AAL486KPHX KSNA KPHX WULKO KEENS IZZZO CULTS HRRBR EMLLD LITNG WTTCH DRTHI CHURO BRCKK ROADE PHIYA DSNEE JWARD HUKEM RW20R1.2 hrs0.9 hrs6,134 lbMichael Collier
2020-10-16AAL791KLAS KPHX KLAS RBELL ROPPR CEASR HITME COWBY TENTS PANTD DUTEY MAIER BRUSR ANNTI ZILUB BRIEZ KUCOO JURAZ JAGAL RW261.1 hrs0.9 hrs5,673 lbMichael Collier
2020-09-08AAL1858KLAS KLAS KLAS RBELL ROPPR CEASR HITME COWBY TENTS PANTD DUTEY MAIER BRUSR ANNTI ZILUB BRIEZ KUCOO JURAZ JAGAL RW261.1 hrs0.7 hrs5,261 lbMichael Collier
2020-08-10AAL1809KSJC KLAS KSJC TECKY NTELL CABAB VIKSN KENNO ESSAA BTY KLAS1.6 hrs1.2 hrs9,094 lbKurt Kalbfleisch
2020-08-08AAL2735KMIA KSJC KMIA POTTR HITAG KAINS FORKK HOSFU BORLE WINCO CHRRI SRQ PIE ENDEW SWABE PLYER LEGGT SZW MAI CEW CATLN MEI MHZ KAMEN STAGE MIXIE BERKE EIC BYP PNH FTI TANER TBC CORKR CUNDY RENTT LAS JEDNA CENIT TUMBE ESSAA KENNO VIKSN CABAB NTELL TROXX SILCN VLLEY GUUYY WLSSN GSTEE KLIDE JENES RW30L5.5 hrs5.3 hrs34,987 lbGeorge
2020-07-25AAL2195KBOS KMIA KBOS SSOXS BUZRD SEY HTO HTO15 RIFLE GEDIC EMJAY YAZUU ZIZZI WARNN SWL CEBEE WETRO DIWNB SEELO JENKS HOAGG BGDOG JORAY KMIA3 hrs2.7 hrs14,975 lbMike Dryden
2020-07-19AAL2384KORD KBOS KORD EBAKE WISMO POSTS PADDE SVM DKK PONCT KBOS2.2 hrs1.8 hrs11,081 lbMike Dryden
2020-07-17AAL2488KCLT KORD KCLT LACHN YNGUN BOBZY BRAYN REWET HALLS BAZOO BNA FTZ GROOV CASHN VINCA MAROC TRICH TRTLL HIHRY RINNO JORJO MONKZ TONIE HAZIL RW28C2.3 hrs1.8 hrs13,395 lbGeorge
2020-07-12AAL2895KORD KCLT KORD EARND ELANR EMMLY ERECO IIU SKYWA NIZAM COMDY BLAYQ PHAYE JJENY FILPZ ADOWN INWAL JELNO CEDOX VALLL NIVSE RW36C1.8 hrs1.4 hrs10,882 lbGeorge
2020-07-11AAL4520KSDF KORD KSDF RRROE STREP MZZ FRIDG WATSN MKITA ESSPO LAACY IZARD CABIJ MONKZ JORJO POSSM HAZIL RW28C1.2 hrs0.8 hrs7,094 lbGeorge
2020-07-11AAL4076KORD KSDF KORD DENNT DARCY DREGS DONVE TTH SACKO CHERI IIU AWLEE RW35L1.1 hrs0.9 hrs6,702 lbGeorge
2020-07-09AAL4505KMSP KORD KMSP PEDLN ZONVO DBQ JVL BULLZ TEDDY KRENA HAZIL RW28C1.4 hrs1.1 hrs8,042 lbGeorge
2020-07-02AAL1282KORD KMSP KORD PMPKN NEATO DLLAN RONIC KAMMA BEERI ROBBY KBULL ZZING HENDR CMAAC KKILR HUGGI KRISP AFTYN CMMOE COZZZ HAMML RW12L1.2 hrs1 hrs6,903 lbGeorge
2020-06-21AAL1408KTPA KORD 2.7 hrs2.4 hrs15,877 lbGeorge
2020-06-21AAL1632KCLT KTPA 1.5 hrs1.2 hrs8,528 lbGeorge
2020-06-21AAL5289KORD KCLT KORD EARND ELANR EMMLY ERECO IIU SKYWA NIZAM COMDY BLAYQ PHAYE JJENY FILPZ ADOWN INWAL JELNO CEDOX VALLL NIVSE RW36C1.9 hrs1.5 hrs10,595 lbGeorge
2020-06-20AAL1463KDFW KORD KDFW SPERA JGIRL CORTS BIGGD CMORE BLECO ZEMMA TUL DOSOA MCI IRK LOAMY KEOKK DRAMS RYELY BDF BYLAW BENKY NEWRK AHSTN PETAH JORJO MONKZ TONIE HAZIL RW28C2.1 hrs1.8 hrs13,059 lbGeorge
2020-06-19AAL519KBHM KDFW KBHM JOEYE IGB MLU YUYUN WAITT PLMER OUTLN VEEYO BEREE BELLS TACKE WARDZ DIETZ WHOOT HEDMN KDFW1.9 hrs1.6 hrs10,315 lbChemtrails